createdAt,value
2023-05-04T00:07:01.927Z,7.8
2023-05-04T00:17:08.124Z,7.8
2023-05-04T00:27:14.018Z,7.8
2023-05-04T00:37:20.069Z,7.8
2023-05-04T00:47:26.332Z,7.7
2023-05-04T00:57:32.122Z,7.7
2023-05-04T01:07:38.200Z,7.7
2023-05-04T01:17:44.395Z,7.5
2023-05-04T01:37:56.324Z,7.5
2023-05-04T01:48:02.435Z,7.4
2023-05-04T01:58:08.436Z,7.4
2023-05-04T02:08:14.481Z,7.4
2023-05-04T02:18:20.517Z,7.4
2023-05-04T02:28:26.581Z,7.4
2023-05-04T02:38:32.626Z,7.3
2023-05-04T02:48:38.741Z,7.3
2023-05-04T02:58:44.711Z,7.3
2023-05-04T03:08:50.769Z,7.3
2023-05-04T03:18:56.813Z,7.3
2023-05-04T03:29:02.872Z,7.2
2023-05-04T03:39:08.913Z,7.4
2023-05-04T03:49:14.961Z,7.4
2023-05-04T03:59:21.012Z,7.5
2023-05-04T04:09:27.062Z,7.6
2023-05-04T04:19:33.090Z,7.7
2023-05-04T04:29:39.131Z,7.5
2023-05-04T04:39:45.183Z,7.6
2023-05-04T04:49:51.230Z,7.6
2023-05-04T04:59:57.270Z,9.2
2023-05-04T05:10:03.664Z,6.8
2023-05-04T05:20:09.390Z,6
2023-05-04T05:30:15.408Z,5.7
2023-05-04T05:40:21.465Z,6.8
2023-05-04T05:50:27.527Z,7
2023-05-04T06:10:41.475Z,7.4
2023-05-04T06:20:47.561Z,7.5
2023-05-04T06:30:53.594Z,7.6
2023-05-04T07:01:14.535Z,7.3
2023-05-04T07:11:19.659Z,7.5
2023-05-04T07:21:28.409Z,7.5
2023-05-04T07:31:31.797Z,7.6
2023-05-04T07:41:37.813Z,7.6
2023-05-04T07:51:43.842Z,7.6
2023-05-04T08:01:49.927Z,7.6
2023-05-04T08:11:55.970Z,7.6
2023-05-04T08:22:01.989Z,7.6
2023-05-04T08:32:08.147Z,7.2
2023-05-04T08:42:14.120Z,7.1
2023-05-04T08:52:20.131Z,6.9
2023-05-04T09:02:26.496Z,7.1
2023-05-04T09:12:32.284Z,6.8
2023-05-04T09:22:38.279Z,7.3
2023-05-04T09:32:44.387Z,7.1
2023-05-04T09:42:50.375Z,7.2
2023-05-04T09:52:58.314Z,6.7
2023-05-04T10:03:04.345Z,6.5
2023-05-04T10:13:10.440Z,6.7
2023-05-04T10:23:16.448Z,6.2
2023-05-04T10:33:22.476Z,6
2023-05-04T10:43:28.532Z,5.5
2023-05-04T10:53:34.579Z,5.3
2023-05-04T11:03:40.670Z,5.6
2023-05-04T11:13:46.681Z,5.6
2023-05-04T11:33:58.784Z,5.6
2023-05-04T11:44:04.804Z,4.9
2023-05-04T11:54:10.849Z,5.3
2023-05-04T12:04:16.987Z,5.2
2023-05-04T12:14:22.957Z,4.8
2023-05-04T12:34:35.057Z,4.9
2023-05-04T12:44:41.123Z,4.1
2023-05-04T12:54:47.133Z,4.5
2023-05-04T13:04:53.200Z,4.6
2023-05-04T13:15:01.138Z,4.6
2023-05-04T13:25:07.420Z,4.3
2023-05-04T13:35:13.223Z,4.3
2023-05-04T13:45:19.288Z,4.3
2023-05-04T13:55:25.319Z,5.1
2023-05-04T14:05:31.366Z,5.8
2023-05-04T14:15:37.457Z,6.2
2023-05-04T14:25:43.466Z,6.4
2023-05-04T14:35:49.513Z,6.8
2023-05-04T14:45:57.469Z,7.1
2023-05-04T14:56:03.498Z,7.3
2023-05-04T15:06:09.560Z,7.3
2023-05-04T15:16:15.633Z,7.5
2023-05-04T15:26:21.627Z,7.7
2023-05-04T15:36:27.653Z,7.7
2023-05-04T15:46:33.771Z,8
2023-05-04T15:56:41.644Z,8
2023-05-04T16:06:47.846Z,8.2
2023-05-04T16:16:53.763Z,8.2
2023-05-04T16:26:59.853Z,8.4
2023-05-04T16:37:05.843Z,8.4
2023-05-04T16:47:11.906Z,8.4
2023-05-04T16:57:17.949Z,8.6
2023-05-04T17:07:23.982Z,8.6
2023-05-04T17:17:30.036Z,8.6
2023-05-04T17:27:36.096Z,8.6
2023-05-04T17:37:44.011Z,8.8
2023-05-04T17:47:50.147Z,8.8
2023-05-04T17:57:56.108Z,8.8
2023-05-04T18:08:02.146Z,8.8
2023-05-04T18:18:08.238Z,9
2023-05-04T18:28:14.258Z,8.8
2023-05-04T18:38:20.283Z,8.8
2023-05-04T18:48:26.353Z,8.8
2023-05-04T18:58:32.396Z,8.8
2023-05-04T19:08:40.304Z,9
2023-05-04T19:18:46.352Z,9
2023-05-04T19:28:52.408Z,9
2023-05-04T19:38:58.487Z,9
2023-05-04T19:49:04.521Z,9
2023-05-04T19:59:10.530Z,9
2023-05-04T20:09:16.587Z,9.1
2023-05-04T20:19:22.649Z,9.1
2023-05-04T20:29:28.759Z,9.1
2023-05-04T20:39:34.726Z,9.1
2023-05-04T20:49:40.801Z,9.1
2023-05-04T20:59:46.845Z,9.1
2023-05-04T21:09:52.872Z,9.1
2023-05-04T21:19:58.923Z,9.1
2023-05-04T21:30:05.239Z,9
2023-05-04T21:40:11.021Z,9
2023-05-04T21:50:17.107Z,9
2023-05-04T22:00:23.088Z,9
2023-05-04T22:10:29.175Z,9
2023-05-04T22:20:37.106Z,9
2023-05-04T22:30:43.160Z,9
2023-05-04T22:50:57.118Z,9
2023-05-04T23:01:03.152Z,8.9
2023-05-04T23:11:09.194Z,8.9
2023-05-04T23:21:15.246Z,8.9
2023-05-04T23:31:21.377Z,8.9
2023-05-04T23:51:33.408Z,8.9
